Terminal Aerodrome Forecast
Issued by NWS

Home | Current Version | Previous Version | Text Only | Print | Product List | Glossary On
Versions: 1 2 3 4 5 6 7 8 9 10 11 12 13 14 15 16 17 18 19 20 21 22 23 24 25 26 27 28 29 30
000
FTUS41 KALY 221736
TAFPSF
TAF
KPSF 221736Z 2218/2318 02005KT 4SM -SN BR OVC040
     FM221900 01005KT 1SM -SN BR SCT008 OVC015
      TEMPO 2219/2221 1/2SM SN FZFG VV008
     FM222100 01005KT 3/4SM -SN BR VV006
     FM222300 VRB04KT P6SM OVC015
     FM230300 VRB02KT P6SM BKN035
     FM231400 12006KT P6SM OVC030=

USA.gov is the U.S. government's official web portal to all federal, state and local government web resources and services.